Terminal Aerodrome Forecast
Issued by NWS

Home | Current Version | Previous Version | Text Only | Print | Product List | Glossary On
Versions: 1 2 3 4 5 6 7 8 9 10 11 12 13 14 15 16
000
FTUS43 KBIS 070107 AAA
TAFMOT
TAF AMD
KMOT 070107Z 0701/0724 VRB04KT P6SM -SHRA VCTS SCT007 BKN015CB
      OVC050
     FM070300 32006KT 3SM SHRA BR VCTS SCT008 OVC025CB
     FM070600 32012G20KT 2SM -SHRA BR OVC015
     FM071000 31018G26KT 2SM -SHRA BR OVC004
     FM071700 31020G30KT P6SM -RA OVC012
     FM072000 31018G28KT P6SM OVC025=

USA.gov is the U.S. government's official web portal to all federal, state and local government web resources and services.